Terminal Aerodrome Forecast
Issued by NWS

Home | Current Version | Previous Version | Text Only | Print | Product List | Glossary On
Versions: 1 2 3 4 5 6 7 8 9 10 11 12 13 14 15 16 17 18 19 20 21 22
000
FTUS43 KOAX 150500
TAFBFF
TAF
KBFF 150526Z 1506/1606 03012KT P6SM SCT050
     FM150900 02008KT 6SM BR BKN015
     FM151200 VRB06KT 4SM BR SCT004 OVC007
     FM151800 15010KT P6SM SCT250=

USA.gov is the U.S. government's official web portal to all federal, state and local government web resources and services.